sensor_id;sensor_type;location;lat;lon;timestamp;temperature;humidity
78694;SHT31;68029;51.978;5.646;2023-06-14T00:00:45;21.6;36.8
78694;SHT31;68029;51.978;5.646;2023-06-14T00:03:15;21.5;37.1
78694;SHT31;68029;51.978;5.646;2023-06-14T00:05:44;21.5;37.5
78694;SHT31;68029;51.978;5.646;2023-06-14T00:08:13;21.5;37.3
78694;SHT31;68029;51.978;5.646;2023-06-14T00:10:42;21.4;37.1
78694;SHT31;68029;51.978;5.646;2023-06-14T00:13:11;21.4;37.4
78694;SHT31;68029;51.978;5.646;2023-06-14T00:15:42;21.4;37.6
78694;SHT31;68029;51.978;5.646;2023-06-14T00:18:11;21.4;37.5
78694;SHT31;68029;51.978;5.646;2023-06-14T00:20:39;21.3;37.5
78694;SHT31;68029;51.978;5.646;2023-06-14T00:23:09;21.3;38.2
78694;SHT31;68029;51.978;5.646;2023-06-14T00:25:37;21.3;38.0
78694;SHT31;68029;51.978;5.646;2023-06-14T00:28:05;21.3;37.9
78694;SHT31;68029;51.978;5.646;2023-06-14T00:30:36;21.2;38.2
78694;SHT31;68029;51.978;5.646;2023-06-14T00:33:04;21.2;38.0
78694;SHT31;68029;51.978;5.646;2023-06-14T00:35:35;21.2;38.4
78694;SHT31;68029;51.978;5.646;2023-06-14T00:38:03;21.2;37.9
78694;SHT31;68029;51.978;5.646;2023-06-14T00:40:33;21.2;38.3
78694;SHT31;68029;51.978;5.646;2023-06-14T00:43:02;21.2;38.7
78694;SHT31;68029;51.978;5.646;2023-06-14T00:45:31;21.1;38.9
78694;SHT31;68029;51.978;5.646;2023-06-14T00:48:03;21.1;38.5
78694;SHT31;68029;51.978;5.646;2023-06-14T00:50:34;21.1;38.7
78694;SHT31;68029;51.978;5.646;2023-06-14T00:53:04;21.1;38.7
78694;SHT31;68029;51.978;5.646;2023-06-14T00:55:33;21.0;38.9
78694;SHT31;68029;51.978;5.646;2023-06-14T00:58:02;21.0;38.9
78694;SHT31;68029;51.978;5.646;2023-06-14T01:00:30;20.9;39.0
78694;SHT31;68029;51.978;5.646;2023-06-14T01:02:59;20.9;38.9
78694;SHT31;68029;51.978;5.646;2023-06-14T01:05:30;20.9;39.0
78694;SHT31;68029;51.978;5.646;2023-06-14T01:08:14;20.8;39.2
78694;SHT31;68029;51.978;5.646;2023-06-14T01:10:53;20.8;39.6
78694;SHT31;68029;51.978;5.646;2023-06-14T01:13:29;20.7;39.7
78694;SHT31;68029;51.978;5.646;2023-06-14T01:16:00;20.7;39.5
78694;SHT31;68029;51.978;5.646;2023-06-14T01:18:29;20.6;39.2
78694;SHT31;68029;51.978;5.646;2023-06-14T01:20:59;20.6;39.5
78694;SHT31;68029;51.978;5.646;2023-06-14T01:23:32;20.6;39.9
78694;SHT31;68029;51.978;5.646;2023-06-14T01:26:02;20.5;39.6
78694;SHT31;68029;51.978;5.646;2023-06-14T01:28:33;20.5;39.9
78694;SHT31;68029;51.978;5.646;2023-06-14T01:31:03;20.5;39.7
78694;SHT31;68029;51.978;5.646;2023-06-14T01:33:33;20.5;40.3
78694;SHT31;68029;51.978;5.646;2023-06-14T01:36:05;20.4;40.5
78694;SHT31;68029;51.978;5.646;2023-06-14T01:38:37;20.4;40.2
78694;SHT31;68029;51.978;5.646;2023-06-14T01:41:06;20.4;40.2
78694;SHT31;68029;51.978;5.646;2023-06-14T01:43:35;20.4;40.2
78694;SHT31;68029;51.978;5.646;2023-06-14T01:46:06;20.3;40.1
78694;SHT31;68029;51.978;5.646;2023-06-14T01:48:35;20.3;40.4
78694;SHT31;68029;51.978;5.646;2023-06-14T01:51:04;20.3;40.5
78694;SHT31;68029;51.978;5.646;2023-06-14T01:53:32;20.2;40.4
78694;SHT31;68029;51.978;5.646;2023-06-14T01:56:01;20.2;40.5
78694;SHT31;68029;51.978;5.646;2023-06-14T01:58:30;20.2;41.1
78694;SHT31;68029;51.978;5.646;2023-06-14T02:00:59;20.1;40.4
78694;SHT31;68029;51.978;5.646;2023-06-14T02:03:27;20.1;40.5
78694;SHT31;68029;51.978;5.646;2023-06-14T02:05:56;20.1;40.7
78694;SHT31;68029;51.978;5.646;2023-06-14T02:08:24;20.1;40.8
78694;SHT31;68029;51.978;5.646;2023-06-14T02:10:53;20.0;40.7
78694;SHT31;68029;51.978;5.646;2023-06-14T02:13:22;20.0;41.0
78694;SHT31;68029;51.978;5.646;2023-06-14T02:15:50;20.0;40.9
78694;SHT31;68029;51.978;5.646;2023-06-14T02:18:20;20.0;41.1
78694;SHT31;68029;51.978;5.646;2023-06-14T02:20:49;19.9;40.9
78694;SHT31;68029;51.978;5.646;2023-06-14T02:23:17;19.9;41.3
78694;SHT31;68029;51.978;5.646;2023-06-14T02:25:46;19.9;41.5
78694;SHT31;68029;51.978;5.646;2023-06-14T02:28:16;19.8;41.3
78694;SHT31;68029;51.978;5.646;2023-06-14T02:30:45;19.8;41.4
78694;SHT31;68029;51.978;5.646;2023-06-14T02:33:13;19.7;41.3
78694;SHT31;68029;51.978;5.646;2023-06-14T02:35:42;19.7;41.7
78694;SHT31;68029;51.978;5.646;2023-06-14T02:38:10;19.7;42.4
78694;SHT31;68029;51.978;5.646;2023-06-14T02:40:39;19.6;41.9
78694;SHT31;68029;51.978;5.646;2023-06-14T02:43:08;19.6;42.0
78694;SHT31;68029;51.978;5.646;2023-06-14T02:45:37;19.6;42.7
78694;SHT31;68029;51.978;5.646;2023-06-14T02:48:06;19.5;42.2
78694;SHT31;68029;51.978;5.646;2023-06-14T02:50:35;19.5;43.0
78694;SHT31;68029;51.978;5.646;2023-06-14T02:53:03;19.5;42.6
78694;SHT31;68029;51.978;5.646;2023-06-14T02:55:33;19.5;42.4
78694;SHT31;68029;51.978;5.646;2023-06-14T02:58:06;19.4;42.7
78694;SHT31;68029;51.978;5.646;2023-06-14T03:00:34;19.4;43.7
78694;SHT31;68029;51.978;5.646;2023-06-14T03:03:04;19.4;42.9
78694;SHT31;68029;51.978;5.646;2023-06-14T03:05:38;19.4;42.9
78694;SHT31;68029;51.978;5.646;2023-06-14T03:08:07;19.4;43.8
78694;SHT31;68029;51.978;5.646;2023-06-14T03:10:35;19.3;43.5
78694;SHT31;68029;51.978;5.646;2023-06-14T03:13:06;19.3;43.0
78694;SHT31;68029;51.978;5.646;2023-06-14T03:15:34;19.3;44.7
78694;SHT31;68029;51.978;5.646;2023-06-14T03:18:02;19.3;45.0
78694;SHT31;68029;51.978;5.646;2023-06-14T03:20:31;19.2;44.5
78694;SHT31;68029;51.978;5.646;2023-06-14T03:23:00;19.2;44.0
78694;SHT31;68029;51.978;5.646;2023-06-14T03:25:29;19.2;43.8
78694;SHT31;68029;51.978;5.646;2023-06-14T03:27:58;19.2;44.0
78694;SHT31;68029;51.978;5.646;2023-06-14T03:30:27;19.2;44.8
78694;SHT31;68029;51.978;5.646;2023-06-14T03:32:55;19.2;45.6
78694;SHT31;68029;51.978;5.646;2023-06-14T03:35:26;19.1;44.5
78694;SHT31;68029;51.978;5.646;2023-06-14T03:37:55;19.1;44.1
78694;SHT31;68029;51.978;5.646;2023-06-14T03:40:23;19.1;43.6
78694;SHT31;68029;51.978;5.646;2023-06-14T03:42:53;19.1;44.5
78694;SHT31;68029;51.978;5.646;2023-06-14T03:45:22;19.1;44.7
78694;SHT31;68029;51.978;5.646;2023-06-14T03:47:50;19.0;44.1
78694;SHT31;68029;51.978;5.646;2023-06-14T03:50:19;19.0;44.5
78694;SHT31;68029;51.978;5.646;2023-06-14T03:52:48;19.0;44.1
78694;SHT31;68029;51.978;5.646;2023-06-14T03:55:17;19.0;44.3
78694;SHT31;68029;51.978;5.646;2023-06-14T03:57:45;18.9;44.6
78694;SHT31;68029;51.978;5.646;2023-06-14T04:00:15;18.9;46.0
78694;SHT31;68029;51.978;5.646;2023-06-14T04:02:44;18.9;44.5
78694;SHT31;68029;51.978;5.646;2023-06-14T04:05:13;18.9;45.8
78694;SHT31;68029;51.978;5.646;2023-06-14T04:07:42;18.8;46.0
78694;SHT31;68029;51.978;5.646;2023-06-14T04:10:12;18.8;45.0
78694;SHT31;68029;51.978;5.646;2023-06-14T04:12:41;18.8;45.3
78694;SHT31;68029;51.978;5.646;2023-06-14T04:15:11;18.8;45.6
78694;SHT31;68029;51.978;5.646;2023-06-14T04:17:40;18.8;45.1
78694;SHT31;68029;51.978;5.646;2023-06-14T04:20:09;18.7;45.5
78694;SHT31;68029;51.978;5.646;2023-06-14T04:22:38;18.7;45.5
78694;SHT31;68029;51.978;5.646;2023-06-14T04:25:08;18.7;45.6
78694;SHT31;68029;51.978;5.646;2023-06-14T04:27:38;18.7;45.6
78694;SHT31;68029;51.978;5.646;2023-06-14T04:30:09;18.7;45.8
78694;SHT31;68029;51.978;5.646;2023-06-14T04:32:39;18.7;45.5
78694;SHT31;68029;51.978;5.646;2023-06-14T04:35:09;18.7;45.6
78694;SHT31;68029;51.978;5.646;2023-06-14T04:37:39;18.7;45.7
78694;SHT31;68029;51.978;5.646;2023-06-14T04:40:10;18.7;45.8
78694;SHT31;68029;51.978;5.646;2023-06-14T04:42:39;18.8;45.7
78694;SHT31;68029;51.978;5.646;2023-06-14T04:45:13;18.8;45.6
78694;SHT31;68029;51.978;5.646;2023-06-14T04:47:43;18.8;45.8
78694;SHT31;68029;51.978;5.646;2023-06-14T04:50:12;18.8;45.5
78694;SHT31;68029;51.978;5.646;2023-06-14T04:52:41;18.8;45.9
78694;SHT31;68029;51.978;5.646;2023-06-14T04:55:10;18.8;45.7
78694;SHT31;68029;51.978;5.646;2023-06-14T04:57:40;18.9;45.9
78694;SHT31;68029;51.978;5.646;2023-06-14T05:00:10;18.9;45.5
78694;SHT31;68029;51.978;5.646;2023-06-14T05:02:39;18.9;45.6
78694;SHT31;68029;51.978;5.646;2023-06-14T05:05:09;18.9;45.6
78694;SHT31;68029;51.978;5.646;2023-06-14T05:07:37;18.9;45.8
78694;SHT31;68029;51.978;5.646;2023-06-14T05:10:07;19.0;45.9
78694;SHT31;68029;51.978;5.646;2023-06-14T05:12:36;19.0;46.0
78694;SHT31;68029;51.978;5.646;2023-06-14T05:15:06;19.0;45.5
78694;SHT31;68029;51.978;5.646;2023-06-14T05:17:35;19.1;45.9
78694;SHT31;68029;51.978;5.646;2023-06-14T05:20:07;19.2;46.2
78694;SHT31;68029;51.978;5.646;2023-06-14T05:22:39;19.3;45.7
78694;SHT31;68029;51.978;5.646;2023-06-14T05:25:10;19.4;45.2
78694;SHT31;68029;51.978;5.646;2023-06-14T05:27:38;19.4;45.1
78694;SHT31;68029;51.978;5.646;2023-06-14T05:30:09;19.5;45.3
78694;SHT31;68029;51.978;5.646;2023-06-14T05:32:38;19.7;44.6
78694;SHT31;68029;51.978;5.646;2023-06-14T05:35:08;19.8;44.3
78694;SHT31;68029;51.978;5.646;2023-06-14T05:37:37;19.9;44.4
78694;SHT31;68029;51.978;5.646;2023-06-14T05:40:07;20.0;44.0
78694;SHT31;68029;51.978;5.646;2023-06-14T05:42:38;20.1;43.9
78694;SHT31;68029;51.978;5.646;2023-06-14T05:45:08;20.2;43.6
78694;SHT31;68029;51.978;5.646;2023-06-14T05:47:36;20.3;43.4
78694;SHT31;68029;51.978;5.646;2023-06-14T05:50:06;20.5;42.9
78694;SHT31;68029;51.978;5.646;2023-06-14T05:52:35;20.6;43.0
78694;SHT31;68029;51.978;5.646;2023-06-14T05:55:04;20.7;42.3
78694;SHT31;68029;51.978;5.646;2023-06-14T05:57:32;20.8;42.7
78694;SHT31;68029;51.978;5.646;2023-06-14T06:00:02;20.9;42.7
78694;SHT31;68029;51.978;5.646;2023-06-14T06:02:37;21.1;42.8
78694;SHT31;68029;51.978;5.646;2023-06-14T06:05:06;21.3;41.9
78694;SHT31;68029;51.978;5.646;2023-06-14T06:07:35;21.4;41.2
78694;SHT31;68029;51.978;5.646;2023-06-14T06:10:09;21.6;41.8
78694;SHT31;68029;51.978;5.646;2023-06-14T06:12:38;21.7;41.2
78694;SHT31;68029;51.978;5.646;2023-06-14T06:15:09;21.9;41.8
78694;SHT31;68029;51.978;5.646;2023-06-14T06:17:40;22.1;40.3
78694;SHT31;68029;51.978;5.646;2023-06-14T06:20:10;22.2;39.5
78694;SHT31;68029;51.978;5.646;2023-06-14T06:22:39;22.4;39.0
78694;SHT31;68029;51.978;5.646;2023-06-14T06:25:08;22.5;39.7
78694;SHT31;68029;51.978;5.646;2023-06-14T06:27:37;22.6;38.2
78694;SHT31;68029;51.978;5.646;2023-06-14T06:30:07;22.8;37.7
78694;SHT31;68029;51.978;5.646;2023-06-14T06:32:37;22.9;37.9
78694;SHT31;68029;51.978;5.646;2023-06-14T06:35:09;23.0;37.8
78694;SHT31;68029;51.978;5.646;2023-06-14T06:37:39;23.1;37.8
78694;SHT31;68029;51.978;5.646;2023-06-14T06:40:09;23.2;37.7
78694;SHT31;68029;51.978;5.646;2023-06-14T06:42:39;23.3;37.9
78694;SHT31;68029;51.978;5.646;2023-06-14T06:45:08;23.5;37.4
78694;SHT31;68029;51.978;5.646;2023-06-14T06:47:36;23.6;37.0
78694;SHT31;68029;51.978;5.646;2023-06-14T06:50:06;23.8;36.6
78694;SHT31;68029;51.978;5.646;2023-06-14T06:52:36;23.9;37.0
78694;SHT31;68029;51.978;5.646;2023-06-14T06:55:05;24.0;36.2
78694;SHT31;68029;51.978;5.646;2023-06-14T06:57:35;24.1;36.0
78694;SHT31;68029;51.978;5.646;2023-06-14T07:00:04;24.2;35.7
78694;SHT31;68029;51.978;5.646;2023-06-14T07:02:35;24.3;35.5
78694;SHT31;68029;51.978;5.646;2023-06-14T07:05:04;24.4;35.2
78694;SHT31;68029;51.978;5.646;2023-06-14T07:07:35;24.5;35.0
78694;SHT31;68029;51.978;5.646;2023-06-14T07:10:05;24.6;35.0
78694;SHT31;68029;51.978;5.646;2023-06-14T07:12:34;24.7;35.0
78694;SHT31;68029;51.978;5.646;2023-06-14T07:15:07;24.8;34.9
78694;SHT31;68029;51.978;5.646;2023-06-14T07:17:37;25.0;34.5
78694;SHT31;68029;51.978;5.646;2023-06-14T07:20:07;25.1;35.4
78694;SHT31;68029;51.978;5.646;2023-06-14T07:22:41;25.3;34.2
78694;SHT31;68029;51.978;5.646;2023-06-14T07:25:12;25.4;33.7
78694;SHT31;68029;51.978;5.646;2023-06-14T07:27:43;25.6;33.1
78694;SHT31;68029;51.978;5.646;2023-06-14T07:30:12;25.7;33.2
78694;SHT31;68029;51.978;5.646;2023-06-14T07:32:42;25.7;32.9
78694;SHT31;68029;51.978;5.646;2023-06-14T07:35:11;25.8;32.4
78694;SHT31;68029;51.978;5.646;2023-06-14T07:37:39;25.8;32.1
78694;SHT31;68029;51.978;5.646;2023-06-14T07:40:09;25.9;31.9
78694;SHT31;68029;51.978;5.646;2023-06-14T07:42:39;25.9;32.7
78694;SHT31;68029;51.978;5.646;2023-06-14T07:45:12;25.9;32.4
78694;SHT31;68029;51.978;5.646;2023-06-14T07:47:41;26.0;32.1
78694;SHT31;68029;51.978;5.646;2023-06-14T07:50:12;26.1;31.7
78694;SHT31;68029;51.978;5.646;2023-06-14T07:52:41;26.2;32.1
78694;SHT31;68029;51.978;5.646;2023-06-14T07:55:11;26.2;31.1
78694;SHT31;68029;51.978;5.646;2023-06-14T07:57:41;26.3;31.0
78694;SHT31;68029;51.978;5.646;2023-06-14T08:00:11;26.4;30.9
78694;SHT31;68029;51.978;5.646;2023-06-14T08:02:42;26.5;30.5
78694;SHT31;68029;51.978;5.646;2023-06-14T08:05:11;26.6;31.4
78694;SHT31;68029;51.978;5.646;2023-06-14T08:07:40;26.8;31.1
78694;SHT31;68029;51.978;5.646;2023-06-14T08:10:11;27.0;31.3
78694;SHT31;68029;51.978;5.646;2023-06-14T08:12:40;27.2;30.9
78694;SHT31;68029;51.978;5.646;2023-06-14T08:15:12;27.4;30.8
78694;SHT31;68029;51.978;5.646;2023-06-14T08:17:42;27.6;31.4
78694;SHT31;68029;51.978;5.646;2023-06-14T08:20:12;27.8;30.9
78694;SHT31;68029;51.978;5.646;2023-06-14T08:22:43;28.0;31.3
78694;SHT31;68029;51.978;5.646;2023-06-14T08:25:14;28.3;29.6
78694;SHT31;68029;51.978;5.646;2023-06-14T08:27:43;28.5;30.6
78694;SHT31;68029;51.978;5.646;2023-06-14T08:30:13;28.7;27.8
78694;SHT31;68029;51.978;5.646;2023-06-14T08:32:43;28.9;27.9
78694;SHT31;68029;51.978;5.646;2023-06-14T08:35:12;29.0;26.8
78694;SHT31;68029;51.978;5.646;2023-06-14T08:37:41;29.0;26.2
78694;SHT31;68029;51.978;5.646;2023-06-14T08:40:21;29.0;26.6
78694;SHT31;68029;51.978;5.646;2023-06-14T08:42:51;29.0;28.1
78694;SHT31;68029;51.978;5.646;2023-06-14T08:45:22;29.1;28.4
78694;SHT31;68029;51.978;5.646;2023-06-14T08:47:52;29.3;27.0
78694;SHT31;68029;51.978;5.646;2023-06-14T08:50:25;29.4;26.6
78694;SHT31;68029;51.978;5.646;2023-06-14T08:52:58;29.6;26.4
78694;SHT31;68029;51.978;5.646;2023-06-14T08:55:30;29.7;25.3
78694;SHT31;68029;51.978;5.646;2023-06-14T08:57:59;29.7;26.2
78694;SHT31;68029;51.978;5.646;2023-06-14T09:00:29;29.8;25.1
78694;SHT31;68029;51.978;5.646;2023-06-14T09:02:59;29.8;24.4
78694;SHT31;68029;51.978;5.646;2023-06-14T09:05:29;29.9;24.6
78694;SHT31;68029;51.978;5.646;2023-06-14T09:07:58;30.0;25.5
78694;SHT31;68029;51.978;5.646;2023-06-14T09:10:27;30.0;27.6
78694;SHT31;68029;51.978;5.646;2023-06-14T09:12:59;30.1;25.1
78694;SHT31;68029;51.978;5.646;2023-06-14T09:15:29;30.2;25.1
78694;SHT31;68029;51.978;5.646;2023-06-14T09:18:00;30.3;25.7
78694;SHT31;68029;51.978;5.646;2023-06-14T09:20:29;30.4;24.9
78694;SHT31;68029;51.978;5.646;2023-06-14T09:22:58;30.5;24.4
78694;SHT31;68029;51.978;5.646;2023-06-14T09:25:29;30.7;23.8
78694;SHT31;68029;51.978;5.646;2023-06-14T09:27:57;30.9;24.9
78694;SHT31;68029;51.978;5.646;2023-06-14T09:30:25;31.0;23.7
78694;SHT31;68029;51.978;5.646;2023-06-14T09:32:54;31.2;22.7
78694;SHT31;68029;51.978;5.646;2023-06-14T09:35:23;31.4;23.3
78694;SHT31;68029;51.978;5.646;2023-06-14T09:37:52;31.5;22.8
78694;SHT31;68029;51.978;5.646;2023-06-14T09:40:22;31.5;23.0
78694;SHT31;68029;51.978;5.646;2023-06-14T09:42:53;31.6;22.6
78694;SHT31;68029;51.978;5.646;2023-06-14T09:45:25;31.6;22.8
78694;SHT31;68029;51.978;5.646;2023-06-14T09:47:56;31.6;22.2
78694;SHT31;68029;51.978;5.646;2023-06-14T09:50:26;31.7;22.3
78694;SHT31;68029;51.978;5.646;2023-06-14T09:53:02;31.7;22.9
78694;SHT31;68029;51.978;5.646;2023-06-14T09:55:35;31.7;22.7
78694;SHT31;68029;51.978;5.646;2023-06-14T09:58:07;31.8;22.0
78694;SHT31;68029;51.978;5.646;2023-06-14T10:00:39;31.9;22.1
78694;SHT31;68029;51.978;5.646;2023-06-14T10:03:16;31.9;22.4
78694;SHT31;68029;51.978;5.646;2023-06-14T10:05:50;31.9;22.0
78694;SHT31;68029;51.978;5.646;2023-06-14T10:08:24;31.9;22.5
78694;SHT31;68029;51.978;5.646;2023-06-14T10:10:55;31.9;23.9
78694;SHT31;68029;51.978;5.646;2023-06-14T10:13:26;31.9;24.5
78694;SHT31;68029;51.978;5.646;2023-06-14T10:16:07;32.0;22.8
78694;SHT31;68029;51.978;5.646;2023-06-14T10:18:44;32.1;24.8
78694;SHT31;68029;51.978;5.646;2023-06-14T10:21:21;32.2;22.4
78694;SHT31;68029;51.978;5.646;2023-06-14T10:23:52;32.3;22.8
78694;SHT31;68029;51.978;5.646;2023-06-14T10:26:23;32.4;23.0
78694;SHT31;68029;51.978;5.646;2023-06-14T10:29:08;32.5;22.7
78694;SHT31;68029;51.978;5.646;2023-06-14T10:31:46;32.6;22.6
78694;SHT31;68029;51.978;5.646;2023-06-14T10:34:24;32.7;23.2
78694;SHT31;68029;51.978;5.646;2023-06-14T10:37:05;32.8;23.5
78694;SHT31;68029;51.978;5.646;2023-06-14T10:39:38;32.9;22.3
78694;SHT31;68029;51.978;5.646;2023-06-14T10:42:09;33.0;22.8
78694;SHT31;68029;51.978;5.646;2023-06-14T10:44:47;33.0;22.9
78694;SHT31;68029;51.978;5.646;2023-06-14T10:47:26;33.0;22.8
78694;SHT31;68029;51.978;5.646;2023-06-14T10:49:58;33.1;21.8
78694;SHT31;68029;51.978;5.646;2023-06-14T10:52:34;33.1;21.6
78694;SHT31;68029;51.978;5.646;2023-06-14T10:55:09;33.1;23.7
78694;SHT31;68029;51.978;5.646;2023-06-14T10:57:41;33.1;22.2
78694;SHT31;68029;51.978;5.646;2023-06-14T11:00:14;33.1;22.7
78694;SHT31;68029;51.978;5.646;2023-06-14T11:03:30;33.2;22.8
78694;SHT31;68029;51.978;5.646;2023-06-14T11:06:00;33.2;22.5
78694;SHT31;68029;51.978;5.646;2023-06-14T11:10:22;33.2;21.6
78694;SHT31;68029;51.978;5.646;2023-06-14T11:12:54;33.3;20.9
78694;SHT31;68029;51.978;5.646;2023-06-14T11:15:29;33.4;20.7
78694;SHT31;68029;51.978;5.646;2023-06-14T11:18:00;33.4;21.0
78694;SHT31;68029;51.978;5.646;2023-06-14T11:20:31;33.4;21.7
78694;SHT31;68029;51.978;5.646;2023-06-14T11:23:00;33.4;21.1
78694;SHT31;68029;51.978;5.646;2023-06-14T11:25:29;33.4;20.6
78694;SHT31;68029;51.978;5.646;2023-06-14T11:27:58;33.4;22.4
78694;SHT31;68029;51.978;5.646;2023-06-14T11:30:27;33.4;20.8
78694;SHT31;68029;51.978;5.646;2023-06-14T11:32:57;33.4;20.8
78694;SHT31;68029;51.978;5.646;2023-06-14T11:35:26;33.4;21.1
78694;SHT31;68029;51.978;5.646;2023-06-14T11:37:55;33.4;20.8
78694;SHT31;68029;51.978;5.646;2023-06-14T11:40:26;33.4;21.4
78694;SHT31;68029;51.978;5.646;2023-06-14T11:43:00;33.5;20.6
78694;SHT31;68029;51.978;5.646;2023-06-14T11:45:31;33.5;21.0
78694;SHT31;68029;51.978;5.646;2023-06-14T11:48:00;33.5;20.5
78694;SHT31;68029;51.978;5.646;2023-06-14T11:50:29;33.5;21.0
78694;SHT31;68029;51.978;5.646;2023-06-14T11:52:59;33.5;21.6
78694;SHT31;68029;51.978;5.646;2023-06-14T11:55:35;33.5;21.4
78694;SHT31;68029;51.978;5.646;2023-06-14T11:58:05;33.6;21.6
78694;SHT31;68029;51.978;5.646;2023-06-14T12:00:35;33.6;21.6
78694;SHT31;68029;51.978;5.646;2023-06-14T12:03:04;33.7;21.3
78694;SHT31;68029;51.978;5.646;2023-06-14T12:05:35;33.7;22.3
78694;SHT31;68029;51.978;5.646;2023-06-14T12:08:04;33.8;21.1
78694;SHT31;68029;51.978;5.646;2023-06-14T12:10:41;33.9;20.1
78694;SHT31;68029;51.978;5.646;2023-06-14T12:13:10;33.9;20.6
78694;SHT31;68029;51.978;5.646;2023-06-14T12:15:39;33.9;20.5
78694;SHT31;68029;51.978;5.646;2023-06-14T12:18:07;33.8;20.5
78694;SHT31;68029;51.978;5.646;2023-06-14T12:20:39;33.8;21.0
78694;SHT31;68029;51.978;5.646;2023-06-14T12:23:07;33.8;21.1
78694;SHT31;68029;51.978;5.646;2023-06-14T12:25:38;33.7;21.7
78694;SHT31;68029;51.978;5.646;2023-06-14T12:28:08;33.7;22.1
78694;SHT31;68029;51.978;5.646;2023-06-14T12:30:38;33.8;22.6
78694;SHT31;68029;51.978;5.646;2023-06-14T12:33:06;33.9;21.5
78694;SHT31;68029;51.978;5.646;2023-06-14T12:35:35;33.9;21.1
78694;SHT31;68029;51.978;5.646;2023-06-14T12:38:04;33.9;21.6
78694;SHT31;68029;51.978;5.646;2023-06-14T12:40:33;33.9;22.4
78694;SHT31;68029;51.978;5.646;2023-06-14T12:43:04;33.9;22.3
78694;SHT31;68029;51.978;5.646;2023-06-14T12:45:32;34.0;21.9
78694;SHT31;68029;51.978;5.646;2023-06-14T12:48:01;34.0;20.7
78694;SHT31;68029;51.978;5.646;2023-06-14T12:50:30;34.0;21.1
78694;SHT31;68029;51.978;5.646;2023-06-14T12:52:58;34.0;20.5
78694;SHT31;68029;51.978;5.646;2023-06-14T12:55:28;33.9;20.4
78694;SHT31;68029;51.978;5.646;2023-06-14T12:57:57;33.9;20.8
78694;SHT31;68029;51.978;5.646;2023-06-14T13:00:26;33.8;20.6
78694;SHT31;68029;51.978;5.646;2023-06-14T13:02:58;33.8;20.7
78694;SHT31;68029;51.978;5.646;2023-06-14T13:05:28;33.8;19.8
78694;SHT31;68029;51.978;5.646;2023-06-14T13:07:59;33.7;20.4
78694;SHT31;68029;51.978;5.646;2023-06-14T13:10:28;33.6;21.1
78694;SHT31;68029;51.978;5.646;2023-06-14T13:12:56;33.5;21.4
78694;SHT31;68029;51.978;5.646;2023-06-14T13:15:26;33.5;22.1
78694;SHT31;68029;51.978;5.646;2023-06-14T13:17:55;33.4;20.6
78694;SHT31;68029;51.978;5.646;2023-06-14T13:20:23;33.4;21.2
78694;SHT31;68029;51.978;5.646;2023-06-14T13:22:52;33.4;21.4
78694;SHT31;68029;51.978;5.646;2023-06-14T13:25:20;33.3;22.5
78694;SHT31;68029;51.978;5.646;2023-06-14T13:27:49;33.3;22.7
78694;SHT31;68029;51.978;5.646;2023-06-14T13:30:19;33.3;22.6
78694;SHT31;68029;51.978;5.646;2023-06-14T13:32:47;33.3;23.1
78694;SHT31;68029;51.978;5.646;2023-06-14T13:35:18;33.4;22.8
78694;SHT31;68029;51.978;5.646;2023-06-14T13:37:47;33.4;21.8
78694;SHT31;68029;51.978;5.646;2023-06-14T13:40:18;33.4;22.0
78694;SHT31;68029;51.978;5.646;2023-06-14T13:42:48;33.4;21.3
78694;SHT31;68029;51.978;5.646;2023-06-14T13:45:16;33.3;22.0
78694;SHT31;68029;51.978;5.646;2023-06-14T13:47:45;33.3;22.6
78694;SHT31;68029;51.978;5.646;2023-06-14T13:50:14;33.2;22.3
78694;SHT31;68029;51.978;5.646;2023-06-14T13:52:43;33.3;22.1
78694;SHT31;68029;51.978;5.646;2023-06-14T13:55:12;33.3;21.4
78694;SHT31;68029;51.978;5.646;2023-06-14T13:57:41;33.2;21.4
78694;SHT31;68029;51.978;5.646;2023-06-14T14:00:13;33.1;21.3
78694;SHT31;68029;51.978;5.646;2023-06-14T14:02:42;33.0;20.8
78694;SHT31;68029;51.978;5.646;2023-06-14T14:05:11;32.8;21.4
78694;SHT31;68029;51.978;5.646;2023-06-14T14:07:41;32.7;21.4
78694;SHT31;68029;51.978;5.646;2023-06-14T14:10:10;32.6;21.2
78694;SHT31;68029;51.978;5.646;2023-06-14T14:12:40;32.5;22.1
78694;SHT31;68029;51.978;5.646;2023-06-14T14:15:11;32.4;22.0
78694;SHT31;68029;51.978;5.646;2023-06-14T14:17:41;32.4;22.5
78694;SHT31;68029;51.978;5.646;2023-06-14T14:20:11;32.3;22.4
78694;SHT31;68029;51.978;5.646;2023-06-14T14:22:42;32.3;22.5
78694;SHT31;68029;51.978;5.646;2023-06-14T14:25:11;32.2;23.4
78694;SHT31;68029;51.978;5.646;2023-06-14T14:27:41;32.1;21.8
78694;SHT31;68029;51.978;5.646;2023-06-14T14:30:11;32.1;22.3
78694;SHT31;68029;51.978;5.646;2023-06-14T14:32:40;32.0;22.1
78694;SHT31;68029;51.978;5.646;2023-06-14T14:35:10;31.8;22.4
78694;SHT31;68029;51.978;5.646;2023-06-14T14:37:39;31.5;23.0
78694;SHT31;68029;51.978;5.646;2023-06-14T14:40:09;31.3;23.8
78694;SHT31;68029;51.978;5.646;2023-06-14T14:42:38;31.1;23.4
78694;SHT31;68029;51.978;5.646;2023-06-14T14:45:08;31.0;23.8
78694;SHT31;68029;51.978;5.646;2023-06-14T14:47:36;30.9;23.5
78694;SHT31;68029;51.978;5.646;2023-06-14T14:50:06;30.7;23.5
78694;SHT31;68029;51.978;5.646;2023-06-14T14:52:35;30.6;23.9
78694;SHT31;68029;51.978;5.646;2023-06-14T14:55:05;30.4;24.5
78694;SHT31;68029;51.978;5.646;2023-06-14T14:57:34;30.3;25.0
78694;SHT31;68029;51.978;5.646;2023-06-14T15:00:03;30.2;24.3
78694;SHT31;68029;51.978;5.646;2023-06-14T15:02:33;30.1;23.9
78694;SHT31;68029;51.978;5.646;2023-06-14T15:05:01;29.9;24.5
78694;SHT31;68029;51.978;5.646;2023-06-14T15:07:31;29.7;24.9
78694;SHT31;68029;51.978;5.646;2023-06-14T15:10:00;29.5;25.0
78694;SHT31;68029;51.978;5.646;2023-06-14T15:12:28;29.4;24.8
78694;SHT31;68029;51.978;5.646;2023-06-14T15:14:57;29.3;25.1
78694;SHT31;68029;51.978;5.646;2023-06-14T15:17:25;29.3;25.3
78694;SHT31;68029;51.978;5.646;2023-06-14T15:19:56;29.2;24.2
78694;SHT31;68029;51.978;5.646;2023-06-14T15:22:24;29.2;24.3
78694;SHT31;68029;51.978;5.646;2023-06-14T15:24:52;29.1;24.2
78694;SHT31;68029;51.978;5.646;2023-06-14T15:27:21;29.0;24.5
78694;SHT31;68029;51.978;5.646;2023-06-14T15:29:51;29.0;24.8
78694;SHT31;68029;51.978;5.646;2023-06-14T15:32:19;28.9;26.2
78694;SHT31;68029;51.978;5.646;2023-06-14T15:34:51;28.9;28.7
78694;SHT31;68029;51.978;5.646;2023-06-14T15:37:19;28.8;26.5
78694;SHT31;68029;51.978;5.646;2023-06-14T15:39:47;28.8;27.1
78694;SHT31;68029;51.978;5.646;2023-06-14T15:42:16;28.7;26.7
78694;SHT31;68029;51.978;5.646;2023-06-14T15:44:44;28.6;26.8
78694;SHT31;68029;51.978;5.646;2023-06-14T15:47:14;28.6;26.8
78694;SHT31;68029;51.978;5.646;2023-06-14T15:49:42;28.5;26.9
78694;SHT31;68029;51.978;5.646;2023-06-14T15:52:12;28.5;27.6
78694;SHT31;68029;51.978;5.646;2023-06-14T15:54:41;28.5;27.0
78694;SHT31;68029;51.978;5.646;2023-06-14T15:57:09;28.4;26.9
78694;SHT31;68029;51.978;5.646;2023-06-14T15:59:38;28.4;27.1
78694;SHT31;68029;51.978;5.646;2023-06-14T16:02:07;28.4;27.0
78694;SHT31;68029;51.978;5.646;2023-06-14T16:04:35;28.4;27.9
78694;SHT31;68029;51.978;5.646;2023-06-14T16:07:04;28.3;27.0
78694;SHT31;68029;51.978;5.646;2023-06-14T16:09:33;28.3;26.9
78694;SHT31;68029;51.978;5.646;2023-06-14T16:12:01;28.3;28.1
78694;SHT31;68029;51.978;5.646;2023-06-14T16:14:30;28.2;27.8
78694;SHT31;68029;51.978;5.646;2023-06-14T16:16:59;28.2;28.5
78694;SHT31;68029;51.978;5.646;2023-06-14T16:19:27;28.1;27.8
78694;SHT31;68029;51.978;5.646;2023-06-14T16:21:55;28.1;27.8